Главная страница
METAR-TAF:

METAR-TAF

Аэропорты :

Нижний Новгород, Россия

Стригино

широта: 56-19-48N, долгота: 044-00E, высота над уровнем моря: м

Текущие метеонаблюдения

Эта сводка был подготовлена 38 минут назад, в 19:00 UTC
Ветер 12 Узел от южный-юго-западный
Температура 14°C
Влажность 38%
Давление 1013 hPa
Видимость 10 км и более
небольшая облачность на высоте 3300 фута

METAR: UWGG 261900Z 20006MPS 9999 FEW033 14/00 Q1013 R18R/090060 NOSIG RMK QFE753

Время: 22:38 (19:38 UTC)

Прогноз

Эта сводка был подготовлена 2 часа и 41 минут назад, в 16:57 UTC
Прогноз действительный с 26-го 18 UTC до 27-го 18 UTC
Ветер 6 Узел от южный
Видимость: 4000 м
Рассеянная облачность на высоте 1100 фута
Рассеянная облачность на высоте 1500 фута, Кучево-дождевые.
небольшие ливневые дожди
временами
С 26-го 18 UTC до 27-го 03 UTC
Ветер 12 Узел от южный-юго-западный с порывами до 25 Узел

TAF: UWGG 261657Z 2618/2718 18003MPS 4000 -SHRA BKN011 BKN015CB TX10/2618Z TN06/2703Z TEMPO 2618/2703 20006G13MPS

Метеонаблюдения и прогнозы для более 4000 аэропортов (сводки METAR и TAF).

Имеющиеся станции представлены на карте желтыми и красными точками.

Чтобы увидеть название станции, наведите на нее мышь.

Затем щелкните, чтобы увидеть метеонаблюдения и метеопрогнозы.

Управление картой: чтобы увеличить масштаб, щелкните зеленые кнопки с черным крестиком; чтобы уменьшить масштаб, щелкните зеленую кнопку с тире; для просмотра соседних карт щелкайте зеленые стрелки.


METAR-TAF: